»·PEaware :: JANET05 KNEW-KSGR

JANET05 :: KNEW-KSGR

FLIGHT INFORMATION

Flight Status: Arrived
Operator: Unknown
More flights by this operator :: More flights under this callsign
Pilot: Jari J. (4222)
Aircraft: BOEING 757-200
(B752)
More flights by this aircraft type
Origin: KNEW Lakefront
United States
Destination: KSGR Sugar Land Mun/Hull
United States
More flights between these airports :: More routes between these airports
Route: HRV VUH DCT
File this flight plan on PilotEdge
Remarks:
Altitude:
(Current/Filed)
30,000ft
Speed:
(Current/Filed)
400kts
Departed: 17-Aug-14 09:29 PM
Arrived: 17-Aug-14 10:31 PM
Distance/Time
Traveled:
294nm/1:01
Distance/Time
To Go:
Arrived

Flight Plot

Page will automatically refresh every two minutes.


Map Options




Map Legend


Flown Route
Filed Route
Departure Airport
Arrival Airport
Navaid (VOR, NDB)
Fix

Horizontal Profiles

Position Reports

Time Latitude Longitude Heading Altitude Ground
Speed
17-Aug-14 21:22 30.040905 -90.031261 91 14ft 0kts
17-Aug-14 21:23 30.040905 -90.031261 91 14ft 0kts
17-Aug-14 21:24 30.040905 -90.031261 91 14ft 0kts
17-Aug-14 21:25 30.039221 -90.030742 179 14ft 11kts
17-Aug-14 21:26 30.035628 -90.030746 180 14ft 15kts
17-Aug-14 21:27 30.034016 -90.030636 126 14ft 0kts
17-Aug-14 21:28 30.040440 -90.029740 358 14ft 123kts
17-Aug-14 21:29 30.089254 -90.014489 46 3863ft 162kts
17-Aug-14 21:30 30.076278 -89.965364 129 6249ft 241kts
17-Aug-14 21:31 30.023682 -89.885296 129 7823ft 308kts
17-Aug-14 21:32 29.970220 -89.846540 160 10096ft 148kts
17-Aug-14 21:33 29.935804 -89.828022 160 9297ft 140kts
17-Aug-14 21:34 29.887122 -89.804156 161 9459ft 190kts
17-Aug-14 21:35 29.840357 -89.773669 171 11525ft 196kts
17-Aug-14 21:36 29.820293 -89.815958 267 13678ft 182kts
17-Aug-14 21:37 29.818905 -89.877155 267 15691ft 198kts
17-Aug-14 21:38 29.818607 -89.943044 271 17707ft 212kts
17-Aug-14 21:39 29.853525 -89.994302 275 19709ft 207kts
17-Aug-14 21:40 29.844736 -90.058693 241 21567ft 217kts
17-Aug-14 21:41 29.837691 -90.134819 262 22629ft 276kts
17-Aug-14 21:42 29.828485 -90.236713 262 23661ft 361kts
17-Aug-14 21:43 29.816701 -90.363756 262 24677ft 430kts
17-Aug-14 21:44 29.803364 -90.508062 262 25686ft 470kts
17-Aug-14 21:45 29.789141 -90.661520 262 26690ft 489kts
17-Aug-14 21:46 29.775105 -90.814042 262 27683ft 450kts
17-Aug-14 21:47 29.762770 -90.950461 262 28681ft 425kts
17-Aug-14 21:48 29.750021 -91.089927 262 29690ft 448kts
17-Aug-14 21:49 29.736628 -91.236770 262 30097ft 467kts
17-Aug-14 21:50 29.723925 -91.377580 262 30088ft 434kts
17-Aug-14 21:51 29.710829 -91.518612 262 30079ft 452kts
17-Aug-14 21:52 29.699134 -91.640906 262 30075ft 468kts
17-Aug-14 21:53 29.684808 -91.792955 263 30075ft 480kts
17-Aug-14 21:54 29.671238 -91.940828 263 30078ft 440kts
17-Aug-14 21:55 29.659177 -92.072684 263 30079ft 389kts
17-Aug-14 21:56 29.647657 -92.200064 263 30083ft 417kts
17-Aug-14 21:57 29.635444 -92.337809 263 30080ft 442kts
17-Aug-14 21:58 29.622839 -92.481539 263 30076ft 458kts
17-Aug-14 21:59 29.609511 -92.628954 263 30068ft 467kts
17-Aug-14 22:00 29.595084 -92.778665 263 30062ft 473kts
17-Aug-14 22:01 29.580632 -92.929873 263 30060ft 476kts
17-Aug-14 22:02 29.566133 -93.081608 263 30054ft 477kts
17-Aug-14 22:03 29.558861 -93.234341 268 30049ft 478kts
17-Aug-14 22:04 29.555386 -93.387497 268 30043ft 479kts
17-Aug-14 22:05 29.556292 -93.541039 271 30043ft 480kts
17-Aug-14 22:06 29.559076 -93.691798 272 29161ft 451kts
17-Aug-14 22:07 29.561980 -93.830246 272 28054ft 416kts
17-Aug-14 22:08 29.565184 -93.959407 272 26948ft 392kts
17-Aug-14 22:09 29.568649 -94.081962 272 25843ft 375kts
17-Aug-14 22:10 29.572413 -94.200165 272 24735ft 362kts
17-Aug-14 22:11 29.576454 -94.314093 272 23631ft 351kts
17-Aug-14 22:12 29.580747 -94.424680 272 22527ft 341kts
17-Aug-14 22:13 29.585404 -94.532302 272 21423ft 332kts
17-Aug-14 22:14 29.590485 -94.637120 272 20319ft 324kts
17-Aug-14 22:15 29.595934 -94.739395 272 19216ft 316kts
17-Aug-14 22:16 29.601793 -94.839318 272 18113ft 309kts
17-Aug-14 22:17 29.607554 -94.937090 272 17011ft 303kts
17-Aug-14 22:18 29.613727 -95.032921 272 15908ft 297kts
17-Aug-14 22:19 29.620386 -95.126910 272 14805ft 292kts
17-Aug-14 22:20 29.618396 -95.217777 254 13430ft 261kts
17-Aug-14 22:21 29.603928 -95.288230 254 11489ft 201kts
17-Aug-14 22:22 29.591302 -95.347769 254 9579ft 185kts
17-Aug-14 22:23 29.579456 -95.404695 253 7682ft 181kts
17-Aug-14 22:24 29.568374 -95.461120 253 5806ft 184kts
17-Aug-14 22:25 29.554525 -95.518206 248 3888ft 182kts
17-Aug-14 22:26 29.538886 -95.570928 242 2835ft 184kts
17-Aug-14 22:27 29.522102 -95.620536 246 2775ft 176kts
17-Aug-14 22:28 29.556838 -95.650500 355 1724ft 182kts
17-Aug-14 22:29 29.601528 -95.654686 356 346ft 142kts
17-Aug-14 22:30 29.625479 -95.656915 355 88ft 23kts
17-Aug-14 22:31 29.629281 -95.657242 357 88ft 8kts
17-Aug-14 22:32 29.633013 -95.658365 262 88ft 12kts
17-Aug-14 22:33 30.040906 -90.031261 91 8ft 0kts
17-Aug-14 22:34 30.040906 -90.031261 91 14ft 0kts
17-Aug-14 22:35 30.040906 -90.031261 91 14ft 0kts
17-Aug-14 22:36 30.040906 -90.031261 91 14ft 0kts
17-Aug-14 22:37 30.040906 -90.031261 91 14ft 0kts
17-Aug-14 22:38 30.033906 -90.030714 100 14ft 14kts
17-Aug-14 22:39 30.055106 -90.029958 358 843ft 174kts
17-Aug-14 22:40 30.089082 -90.001509 82 4409ft 217kts
17-Aug-14 22:41 29.612594 -95.655676 355 88ft 0kts
17-Aug-14 22:42 29.615486 -95.655929 355 88ft 38kts
17-Aug-14 22:43 29.621208 -95.656488 355 88ft 27kts
17-Aug-14 22:44 29.623011 -95.656648 355 88ft 4kts

Navigation Log

Ident Type
Flight plan parsing failed, navigation log unavailable